Time;durP1;ratioP1;P1;durP2;ratioP2;P2;SDS_P1;SDS_P2;PMS_P1;PMS_P2;Temp;Humidity;BMP_temperature;BMP_pressure;BME280_temperature;BME280_humidity;BME280_pressure;Samples;Min_cycle;Max_cycle;Signal;HPM_P1;HPM_P2
2022/10/20 00:01:27;;;;;;;4.88;3.00;;;11.70;99.90;;;;;;5012594;28;20042;-66
2022/10/20 00:03:54;;;;;;;8.02;3.33;;;11.70;99.90;;;;;;5013673;28;20044;-66
2022/10/20 00:06:27;;;;;;;5.65;2.97;;;11.70;99.90;;;;;;5013471;28;20033;-66
2022/10/20 00:08:54;;;;;;;7.63;2.95;;;11.70;99.90;;;;;;5012484;28;20038;-66
2022/10/20 00:11:22;;;;;;;10.40;3.67;;;11.70;99.90;;;;;;5012214;28;20363;-67
2022/10/20 00:13:50;;;;;;;7.78;3.42;;;11.70;99.90;;;;;;5013180;28;20482;-66
2022/10/20 00:16:17;;;;;;;7.32;2.83;;;11.70;99.90;;;;;;4995676;28;20104;-67
2022/10/20 00:18:43;;;;;;;8.85;3.10;;;11.70;99.90;;;;;;5013271;28;20034;-67
2022/10/20 00:21:14;;;;;;;6.97;3.63;;;11.70;99.90;;;;;;5013189;28;20026;-66
2022/10/20 00:23:40;;;;;;;5.22;2.78;;;11.70;99.90;;;;;;5011793;28;20445;-66
2022/10/20 00:26:18;;;;;;;7.25;3.65;;;11.70;99.90;;;;;;5012903;28;20034;-66
2022/10/20 00:28:45;;;;;;;15.73;3.30;;;11.70;99.90;;;;;;5013150;28;20037;-66
2022/10/20 00:31:12;;;;;;;9.60;3.30;;;11.60;99.90;;;;;;5011630;28;20045;-66
2022/10/20 00:33:38;;;;;;;5.05;2.75;;;11.60;99.90;;;;;;5012936;28;20034;-66
2022/10/20 00:36:07;;;;;;;11.88;3.70;;;11.60;99.90;;;;;;5011708;28;20088;-66
2022/10/20 00:38:34;;;;;;;7.45;3.47;;;11.60;99.90;;;;;;5012277;28;20084;-66
2022/10/20 00:41:03;;;;;;;6.60;4.03;;;11.60;99.90;;;;;;5012610;28;20045;-66
2022/10/20 00:43:48;;;;;;;10.52;3.58;;;11.60;99.90;;;;;;5012503;28;20026;-66
2022/10/20 00:46:37;;;;;;;6.13;3.60;;;11.60;99.90;;;;;;5012822;28;20033;-66
2022/10/20 00:49:22;;;;;;;8.90;3.85;;;11.60;99.90;;;;;;5011531;28;20081;-66
2022/10/20 00:51:51;;;;;;;6.63;2.95;;;11.60;99.90;;;;;;4996306;28;20552;-66
2022/10/20 00:54:23;;;;;;;12.50;4.00;;;11.60;99.90;;;;;;5011159;28;20041;-66
2022/10/20 00:56:51;;;;;;;7.88;3.63;;;11.50;99.90;;;;;;5012898;28;20038;-66
2022/10/20 00:59:25;;;;;;;6.95;3.90;;;11.50;99.90;;;;;;5011488;28;20026;-66
2022/10/20 01:01:51;;;;;;;8.15;2.78;;;11.50;99.90;;;;;;5011235;28;20037;-66
2022/10/20 01:04:17;;;;;;;8.95;3.83;;;11.40;99.90;;;;;;5009909;28;20136;-66
2022/10/20 01:06:43;;;;;;;9.45;3.42;;;11.30;99.90;;;;;;5011287;28;20030;-66
2022/10/20 01:09:09;;;;;;;7.13;2.65;;;11.30;99.90;;;;;;5026709;28;20022;-66
2022/10/20 01:11:56;;;;;;;9.50;3.67;;;11.30;99.90;;;;;;5016195;28;20494;-66
2022/10/20 01:14:45;;;;;;;6.35;3.30;;;11.10;99.90;;;;;;4992443;28;20034;-67
2022/10/20 01:17:28;;;;;;;6.07;3.15;;;11.10;99.90;;;;;;4991409;28;20515;-66
2022/10/20 01:20:37;;;;;;;9.07;3.58;;;11.10;99.90;;;;;;4992432;28;20068;-66
2022/10/20 01:23:15;;;;;;;11.75;4.22;;;11.00;99.90;;;;;;4992157;28;20157;-66
2022/10/20 01:26:19;;;;;;;6.00;2.92;;;11.00;99.90;;;;;;5031614;28;20052;-66
2022/10/20 01:28:55;;;;;;;5.22;3.30;;;11.00;99.90;;;;;;5031668;28;20087;-66
2022/10/20 01:31:59;;;;;;;6.90;3.30;;;10.90;99.90;;;;;;5031551;28;20427;-66
2022/10/20 01:34:56;;;;;;;7.78;3.53;;;11.00;99.90;;;;;;5031452;28;20049;-66
2022/10/20 01:37:38;;;;;;;8.25;4.53;;;10.90;99.90;;;;;;5031230;28;20466;-66
2022/10/20 01:40:33;;;;;;;8.18;3.95;;;11.00;99.90;;;;;;5030353;28;20057;-66
2022/10/20 01:43:07;;;;;;;9.52;3.58;;;11.00;99.90;;;;;;5010267;28;20073;-66
2022/10/20 01:45:35;;;;;;;11.45;4.72;;;11.00;99.90;;;;;;5010399;28;20037;-66
2022/10/20 01:48:06;;;;;;;8.57;3.90;;;10.90;99.90;;;;;;5010334;28;20022;-67
2022/10/20 01:50:34;;;;;;;11.68;3.25;;;10.90;99.90;;;;;;5010946;28;20096;-66
2022/10/20 01:53:01;;;;;;;8.90;4.32;;;11.00;99.90;;;;;;5009733;28;20041;-66
2022/10/20 01:55:27;;;;;;;7.18;3.17;;;11.00;99.90;;;;;;5010529;28;20034;-66
2022/10/20 01:58:22;;;;;;;6.95;3.20;;;11.00;99.90;;;;;;5010432;28;20117;-66
2022/10/20 02:00:51;;;;;;;15.05;4.05;;;11.10;99.90;;;;;;5011346;28;20517;-66
2022/10/20 02:03:43;;;;;;;7.95;3.78;;;11.10;99.90;;;;;;5009550;28;20048;-66
2022/10/20 02:06:40;;;;;;;6.90;3.97;;;11.10;99.90;;;;;;5010127;28;20112;-66
2022/10/20 02:09:16;;;;;;;6.07;3.75;;;11.10;99.90;;;;;;5011406;28;20026;-66
2022/10/20 02:11:47;;;;;;;8.30;3.38;;;11.10;99.90;;;;;;5009995;28;20540;-66
2022/10/20 02:14:17;;;;;;;5.72;3.63;;;11.10;99.90;;;;;;5009700;28;20033;-66
2022/10/20 02:16:56;;;;;;;6.82;3.88;;;11.10;99.90;;;;;;5006524;28;20490;-66
2022/10/20 02:19:27;;;;;;;8.10;4.15;;;11.10;99.90;;;;;;4990483;28;20042;-66
2022/10/20 02:21:55;;;;;;;6.75;3.60;;;11.10;99.90;;;;;;4990372;28;20121;-66
2022/10/20 02:24:26;;;;;;;8.82;3.42;;;11.10;99.90;;;;;;4989995;28;20066;-66
2022/10/20 02:26:56;;;;;;;7.43;3.58;;;11.10;99.90;;;;;;4990076;28;20049;-67
2022/10/20 02:29:28;;;;;;;5.57;3.20;;;11.10;99.90;;;;;;4990421;28;20022;-67
2022/10/20 02:31:54;;;;;;;8.07;3.45;;;11.00;99.90;;;;;;5014753;23;20411;-69
2022/10/20 02:34:24;;;;;;;13.07;4.25;;;10.90;99.90;;;;;;4989581;28;20026;-68
2022/10/20 02:36:49;;;;;;;9.82;3.65;;;10.90;99.90;;;;;;5006809;28;20037;-68
2022/10/20 02:39:15;;;;;;;6.85;3.47;;;10.90;99.90;;;;;;4989976;28;20034;-68
2022/10/20 02:41:40;;;;;;;8.35;3.97;;;10.90;99.90;;;;;;4991384;28;20031;-68
2022/10/20 02:44:06;;;;;;;7.63;3.88;;;10.90;99.90;;;;;;4991139;28;20043;-68
2022/10/20 02:46:32;;;;;;;7.22;3.47;;;10.90;99.90;;;;;;4991405;28;20066;-69
2022/10/20 02:48:57;;;;;;;7.28;3.75;;;10.90;99.90;;;;;;4989824;28;20088;-70
2022/10/20 02:51:23;;;;;;;5.82;3.25;;;10.90;99.90;;;;;;4991382;28;20360;-69
2022/10/20 02:53:49;;;;;;;9.10;4.47;;;10.80;99.90;;;;;;4989586;28;20197;-69
2022/10/20 02:56:15;;;;;;;10.68;3.35;;;10.80;99.90;;;;;;4991365;28;20112;-69
2022/10/20 02:58:40;;;;;;;9.50;3.90;;;10.90;99.90;;;;;;4991221;28;20034;-69
2022/10/20 03:01:06;;;;;;;5.82;3.05;;;10.90;99.90;;;;;;4991157;28;20038;-70
2022/10/20 03:03:32;;;;;;;6.28;3.50;;;10.80;99.90;;;;;;4990578;28;20497;-70
2022/10/20 03:06:06;;;;;;;15.70;5.00;;;10.80;99.90;;;;;;4984893;28;20027;-70
2022/10/20 03:08:31;;;;;;;8.75;4.78;;;10.80;99.90;;;;;;4974146;28;20478;-70
2022/10/20 03:10:57;;;;;;;25.15;5.10;;;10.90;99.90;;;;;;4980085;28;20030;-70
2022/10/20 03:13:23;;;;;;;5.35;3.47;;;10.80;99.90;;;;;;4994386;28;20438;-70
2022/10/20 03:15:48;;;;;;;7.38;3.25;;;10.90;99.90;;;;;;4994633;28;20036;-70
2022/10/20 03:18:14;;;;;;;9.80;4.57;;;10.90;99.90;;;;;;4994529;28;20026;-70
2022/10/20 03:20:39;;;;;;;7.28;3.72;;;10.90;99.90;;;;;;4979856;28;20126;-70
2022/10/20 03:23:05;;;;;;;8.45;3.78;;;11.00;99.90;;;;;;4974840;28;20045;-70
2022/10/20 03:25:31;;;;;;;7.18;3.95;;;11.00;99.90;;;;;;4975075;28;20030;-70
2022/10/20 03:27:57;;;;;;;7.90;4.40;;;11.10;99.90;;;;;;4974824;28;20031;-70
2022/10/20 03:30:23;;;;;;;9.27;3.15;;;11.10;99.90;;;;;;4974813;28;20023;-70
2022/10/20 03:32:49;;;;;;;7.47;3.75;;;11.10;99.90;;;;;;4973264;28;20038;-69
2022/10/20 03:35:15;;;;;;;7.40;3.28;;;11.10;99.90;;;;;;4974882;28;20046;-69
2022/10/20 03:37:40;;;;;;;8.45;3.05;;;11.10;99.90;;;;;;4987408;28;20038;-69
2022/10/20 03:40:07;;;;;;;7.88;3.63;;;11.20;99.90;;;;;;4992747;28;20073;-70
2022/10/20 03:42:32;;;;;;;7.22;4.40;;;11.20;99.90;;;;;;4992690;28;20027;-70
2022/10/20 03:44:58;;;;;;;6.32;3.40;;;11.10;99.90;;;;;;4993893;28;20033;-70
2022/10/20 03:47:24;;;;;;;10.38;4.18;;;11.10;99.90;;;;;;4994201;28;20160;-70
2022/10/20 03:49:49;;;;;;;8.02;4.00;;;11.00;99.90;;;;;;4993813;28;20100;-70
2022/10/20 03:52:15;;;;;;;7.45;4.60;;;11.00;99.90;;;;;;4993695;28;20101;-70
2022/10/20 03:54:41;;;;;;;7.72;3.83;;;11.00;99.90;;;;;;4994250;28;20116;-70
2022/10/20 03:57:07;;;;;;;8.40;4.05;;;10.90;99.90;;;;;;4994181;28;20031;-69
2022/10/20 03:59:32;;;;;;;6.07;3.13;;;10.90;99.90;;;;;;4993530;28;20034;-70
2022/10/20 04:01:58;;;;;;;8.95;4.38;;;10.80;99.90;;;;;;4993682;28;20130;-69
2022/10/20 04:04:24;;;;;;;6.75;3.97;;;10.80;99.90;;;;;;4993370;28;20057;-70
2022/10/20 04:06:49;;;;;;;6.53;3.80;;;10.70;99.90;;;;;;4992557;28;20410;-69
2022/10/20 04:09:15;;;;;;;8.32;4.07;;;10.60;99.90;;;;;;4993538;28;20038;-70
2022/10/20 04:11:41;;;;;;;7.28;3.78;;;10.60;99.90;;;;;;4980523;28;20031;-70
2022/10/20 04:14:07;;;;;;;10.27;4.43;;;10.60;99.90;;;;;;4972764;28;20035;-70
2022/10/20 04:16:32;;;;;;;8.57;4.07;;;10.40;99.90;;;;;;4988833;28;20038;-70
2022/10/20 04:18:58;;;;;;;7.28;3.42;;;10.40;99.90;;;;;;4973843;28;20038;-70
2022/10/20 04:21:25;;;;;;;9.07;3.92;;;10.40;99.90;;;;;;4974074;28;20031;-71
2022/10/20 04:23:51;;;;;;;5.68;3.70;;;10.30;99.90;;;;;;4983681;28;20077;-73
2022/10/20 04:26:16;;;;;;;10.40;4.70;;;10.40;99.90;;;;;;4990550;28;20022;-74
2022/10/20 04:28:42;;;;;;;17.30;4.80;;;10.30;99.90;;;;;;5000245;28;20026;-72
2022/10/20 04:31:08;;;;;;;13.15;5.15;;;10.80;99.90;;;;;;4990617;28;20113;-73
2022/10/20 04:33:34;;;;;;;17.25;4.22;;;11.30;99.90;;;;;;4985535;28;20440;-73
2022/10/20 04:36:04;;;;;;;9.10;4.00;;;11.30;99.90;;;;;;4972167;28;20042;-72
2022/10/20 04:38:33;;;;;;;19.70;5.82;;;11.10;99.90;;;;;;4974137;28;20031;-73
2022/10/20 04:41:03;;;;;;;7.97;4.35;;;11.20;99.90;;;;;;4980944;28;20030;-72
2022/10/20 04:43:29;;;;;;;25.35;13.55;;;10.90;99.90;;;;;;4971757;28;20065;-73
2022/10/20 04:46:03;;;;;;;12.65;5.55;;;10.90;99.90;;;;;;4973374;28;20039;-72
2022/10/20 04:48:29;;;;;;;14.70;4.75;;;10.90;99.90;;;;;;4972540;28;20037;-72
2022/10/20 04:51:10;;;;;;;11.48;4.38;;;10.90;99.90;;;;;;4973269;28;20031;-74
2022/10/20 04:53:36;;;;;;;10.88;5.07;;;10.90;99.90;;;;;;4981776;28;20029;-75
2022/10/20 04:56:04;;;;;;;12.35;5.25;;;10.80;99.90;;;;;;4988801;28;20588;-74
2022/10/20 04:58:30;;;;;;;11.50;4.63;;;10.70;99.90;;;;;;4990963;28;20065;-75
2022/10/20 05:01:06;;;;;;;11.73;4.75;;;10.60;99.90;;;;;;4990914;28;20086;-73
2022/10/20 05:03:32;;;;;;;10.10;4.85;;;10.70;99.90;;;;;;4974804;28;20490;-74
2022/10/20 05:06:11;;;;;;;18.60;5.82;;;10.70;99.90;;;;;;4992211;28;20045;-74
2022/10/20 05:08:38;;;;;;;11.93;4.15;;;10.70;99.90;;;;;;4992297;28;20129;-75
2022/10/20 05:11:04;;;;;;;6.15;3.08;;;10.70;99.90;;;;;;4984261;28;20073;-76
2022/10/20 05:13:30;;;;;;;10.68;4.07;;;10.70;99.90;;;;;;4971277;28;20042;-73
2022/10/20 05:15:55;;;;;;;7.82;4.00;;;10.70;99.90;;;;;;4984719;28;20046;-72
2022/10/20 05:18:21;;;;;;;15.23;5.38;;;10.80;99.90;;;;;;4990766;28;20026;-73
2022/10/20 05:20:47;;;;;;;7.60;3.92;;;10.80;99.90;;;;;;4991690;28;20184;-74
2022/10/20 05:23:12;;;;;;;8.07;3.88;;;10.80;99.90;;;;;;4990607;28;20138;-73
2022/10/20 05:25:38;;;;;;;10.05;4.35;;;10.70;99.90;;;;;;4991504;28;20501;-73
2022/10/20 05:28:05;;;;;;;14.20;4.88;;;10.70;99.90;;;;;;4992108;28;20464;-73
2022/10/20 05:30:33;;;;;;;9.95;4.47;;;10.60;99.90;;;;;;4990591;28;20034;-72
2022/10/20 05:32:59;;;;;;;11.77;5.35;;;10.50;99.90;;;;;;4989572;28;20101;-78
2022/10/20 05:35:27;;;;;;;10.85;4.85;;;10.50;99.90;;;;;;4985315;28;20487;-72
2022/10/20 05:37:53;;;;;;;13.20;4.85;;;10.40;99.90;;;;;;4972776;28;20035;-89
2022/10/20 05:43:39;;;;;;;12.35;5.90;;;10.40;99.90;;;;;;5028061;23;20108;-91
2022/10/20 05:46:06;;;;;;;14.20;4.30;;;10.30;99.90;;;;;;5012294;28;20037;-86
2022/10/20 05:48:32;;;;;;;14.10;5.00;;;10.30;99.90;;;;;;5012032;28;20037;-83
2022/10/20 05:51:10;;;;;;;9.82;5.45;;;10.30;99.90;;;;;;5115953;23;20062;-81
2022/10/20 05:53:37;;;;;;;8.85;4.85;;;10.40;99.90;;;;;;5010718;28;20034;-83
2022/10/20 05:56:08;;;;;;;10.32;4.38;;;10.50;99.90;;;;;;5026287;28;20033;-82
2022/10/20 05:58:34;;;;;;;;;;;10.50;99.90;;;;;;5011327;28;20032;-77
2022/10/20 06:01:24;;;;;;;10.50;5.00;;;10.50;99.90;;;;;;5010316;28;20280;-80
2022/10/20 06:03:53;;;;;;;9.15;4.85;;;10.50;99.90;;;;;;5009383;28;20054;-77
2022/10/20 06:06:21;;;;;;;12.88;5.55;;;10.50;99.90;;;;;;5009385;28;20483;-78
2022/10/20 06:08:49;;;;;;;20.35;4.35;;;10.50;99.90;;;;;;5009473;28;20084;-77
2022/10/20 06:11:17;;;;;;;17.60;4.65;;;10.50;99.90;;;;;;5006464;28;20029;-87
2022/10/20 06:13:42;;;;;;;13.77;5.15;;;10.50;99.90;;;;;;4990781;28;20026;-80
2022/10/20 06:16:15;;;;;;;8.95;4.55;;;10.60;99.90;;;;;;4989791;28;20030;-80
2022/10/20 06:18:42;;;;;;;7.03;4.85;;;10.60;99.90;;;;;;4989801;28;20038;-81
2022/10/20 06:21:32;;;;;;;8.30;4.53;;;10.50;99.90;;;;;;4990038;28;20039;-79
2022/10/20 06:24:00;;;;;;;10.43;4.68;;;10.60;99.90;;;;;;4999826;28;20069;-80
2022/10/20 06:26:28;;;;;;;8.65;4.30;;;10.60;99.90;;;;;;5006795;28;20057;-80
2022/10/20 06:28:56;;;;;;;10.43;4.32;;;10.60;99.90;;;;;;4992118;28;20390;-76
2022/10/20 06:31:32;;;;;;;10.02;4.53;;;10.60;99.90;;;;;;4989461;28;20038;-75
2022/10/20 06:33:59;;;;;;;13.07;4.18;;;10.60;99.90;;;;;;4990571;28;20113;-75
2022/10/20 06:36:26;;;;;;;10.60;6.03;;;10.50;99.90;;;;;;4990537;28;20022;-76
2022/10/20 06:38:57;;;;;;;10.15;4.85;;;10.60;99.90;;;;;;4992929;28;20058;-73
2022/10/20 06:41:25;;;;;;;24.65;6.18;;;10.60;99.90;;;;;;4993510;28;20040;-74
2022/10/20 06:43:57;;;;;;;16.50;5.85;;;10.70;99.90;;;;;;4994873;28;20034;-74
2022/10/20 06:46:23;;;;;;;11.88;4.93;;;10.70;99.90;;;;;;4994810;28;20046;-74
2022/10/20 06:48:48;;;;;;;12.02;5.93;;;10.80;99.90;;;;;;4994925;28;20030;-75
2022/10/20 06:51:18;;;;;;;8.15;4.57;;;10.90;99.90;;;;;;4994636;28;20034;-74
2022/10/20 06:53:44;;;;;;;12.93;4.03;;;11.00;99.90;;;;;;5002414;28;20037;-74
2022/10/20 06:56:21;;;;;;;14.02;5.15;;;11.10;99.90;;;;;;5013288;28;20038;-74
2022/10/20 06:58:50;;;;;;;13.07;5.38;;;11.20;99.90;;;;;;5013072;28;20091;-74
2022/10/20 07:01:24;;;;;;;18.20;6.82;;;11.30;99.90;;;;;;5014433;28;20064;-75
2022/10/20 07:03:53;;;;;;;7.70;4.18;;;11.40;99.90;;;;;;5013832;28;20033;-75
2022/10/20 07:06:23;;;;;;;11.93;5.47;;;11.40;99.90;;;;;;5014150;28;20057;-74
2022/10/20 07:08:52;;;;;;;8.93;5.50;;;11.40;99.90;;;;;;5012715;28;20100;-75
2022/10/20 07:11:21;;;;;;;15.20;6.55;;;11.50;99.90;;;;;;5009070;28;20045;-75
2022/10/20 07:13:48;;;;;;;9.18;4.55;;;11.50;99.90;;;;;;4992866;28;20105;-75
2022/10/20 07:16:21;;;;;;;10.43;5.32;;;11.50;99.90;;;;;;4994322;28;20046;-75
2022/10/20 07:18:47;;;;;;;10.02;5.00;;;11.60;99.90;;;;;;4994231;28;20097;-75
2022/10/20 07:21:17;;;;;;;11.70;5.00;;;11.60;99.90;;;;;;4993132;28;20034;-75
2022/10/20 07:23:44;;;;;;;8.82;4.10;;;11.60;99.90;;;;;;4993825;28;20045;-75
2022/10/20 07:26:12;;;;;;;9.75;5.03;;;11.70;99.90;;;;;;4994190;28;20093;-75
2022/10/20 07:28:42;;;;;;;9.57;4.95;;;11.70;99.90;;;;;;4993104;28;20026;-75
2022/10/20 07:31:16;;;;;;;7.93;4.03;;;11.70;99.90;;;;;;4992630;28;20022;-75
2022/10/20 07:33:42;;;;;;;12.68;4.78;;;11.80;99.90;;;;;;4993961;28;20037;-75
2022/10/20 07:36:22;;;;;;;8.05;4.72;;;11.80;99.90;;;;;;4992940;28;20041;-75
2022/10/20 07:38:50;;;;;;;15.05;4.53;;;11.90;99.90;;;;;;4994037;28;20027;-75
2022/10/20 07:41:16;;;;;;;10.75;5.47;;;11.90;99.90;;;;;;4992528;28;20035;-75
2022/10/20 07:43:42;;;;;;;10.65;4.30;;;12.00;99.90;;;;;;5013032;28;20040;-75
2022/10/20 07:46:10;;;;;;;5.88;3.80;;;12.00;99.90;;;;;;5013239;28;20030;-74
2022/10/20 07:48:36;;;;;;;5.43;3.35;;;12.10;99.90;;;;;;5012099;28;20389;-75
2022/10/20 07:51:28;;;;;;;15.68;5.22;;;12.20;99.90;;;;;;5011936;28;20061;-75
2022/10/20 07:53:58;;;;;;;8.10;3.60;;;12.20;99.90;;;;;;5011442;28;20022;-75
2022/10/20 07:56:29;;;;;;;7.65;4.00;;;12.30;99.90;;;;;;5013245;28;20099;-75
2022/10/20 07:58:55;;;;;;;8.27;4.35;;;12.40;99.90;;;;;;5012596;28;20474;-77
2022/10/20 08:01:21;;;;;;;8.27;4.07;;;12.40;99.90;;;;;;5011534;28;20548;-75
2022/10/20 08:03:47;;;;;;;10.82;3.88;;;12.50;99.90;;;;;;5012328;28;20038;-80
2022/10/20 08:06:12;;;;;;;10.05;4.10;;;12.60;99.90;;;;;;5006569;28;20083;-76
2022/10/20 08:08:38;;;;;;;6.97;3.92;;;12.60;99.90;;;;;;5012283;28;20034;-73
2022/10/20 08:11:04;;;;;;;9.30;4.20;;;12.60;99.90;;;;;;5004652;28;20026;-76
2022/10/20 08:13:31;;;;;;;9.02;4.10;;;12.60;99.90;;;;;;4992888;28;20022;-79
2022/10/20 08:15:57;;;;;;;10.23;3.92;;;12.70;99.90;;;;;;4993356;28;20150;-76
2022/10/20 08:18:22;;;;;;;8.43;4.28;;;12.70;99.90;;;;;;4993383;28;20042;-77
2022/10/20 08:20:48;;;;;;;5.95;4.20;;;12.80;99.90;;;;;;4991775;28;20382;-77
2022/10/20 08:23:15;;;;;;;6.72;4.18;;;12.90;99.90;;;;;;4996572;28;20061;-78
2022/10/20 08:25:41;;;;;;;7.68;3.90;;;13.10;99.90;;;;;;5004942;28;20034;-77
2022/10/20 08:28:07;;;;;;;13.90;4.07;;;13.10;99.90;;;;;;4992840;28;20038;-77
2022/10/20 08:30:33;;;;;;;10.07;4.30;;;13.00;99.90;;;;;;5015421;23;20062;-72
2022/10/20 08:32:59;;;;;;;8.85;4.30;;;13.10;99.90;;;;;;5011712;28;20041;-72
2022/10/20 08:35:25;;;;;;;12.85;4.43;;;13.20;99.90;;;;;;5012443;28;20030;-72
2022/10/20 08:37:51;;;;;;;10.30;4.30;;;13.30;99.90;;;;;;5012241;28;20057;-73
2022/10/20 08:40:28;;;;;;;12.10;4.72;;;13.20;99.90;;;;;;4994437;28;20374;-70
2022/10/20 08:42:55;;;;;;;10.38;4.53;;;13.20;99.90;;;;;;5010906;28;20387;-71
2022/10/20 08:45:24;;;;;;;9.85;5.00;;;13.30;99.90;;;;;;5010840;28;20026;-71
2022/10/20 08:47:56;;;;;;;9.63;4.68;;;13.30;99.90;;;;;;5012282;28;20026;-71
2022/10/20 08:50:23;;;;;;;8.38;4.55;;;13.40;99.90;;;;;;5010945;28;20037;-71
2022/10/20 08:52:55;;;;;;;11.52;5.07;;;13.50;99.90;;;;;;5009961;28;20057;-70
2022/10/20 08:55:30;;;;;;;17.67;4.00;;;13.70;99.90;;;;;;4974524;28;20022;-70
2022/10/20 08:58:21;;;;;;;8.00;3.47;;;13.80;99.90;;;;;;4972668;28;20141;-70
2022/10/20 09:00:53;;;;;;;7.83;4.00;;;14.00;99.90;;;;;;4971232;28;20038;-71
2022/10/20 09:03:39;;;;;;;11.02;5.15;;;14.10;99.90;;;;;;4972743;28;20286;-70
2022/10/20 09:06:15;;;;;;;14.43;5.57;;;14.20;99.90;;;;;;4971518;28;20089;-71
2022/10/20 09:08:42;;;;;;;8.90;4.97;;;14.30;99.90;;;;;;4955744;28;20069;-70
2022/10/20 09:11:16;;;;;;;10.57;4.82;;;14.30;99.90;;;;;;4980326;28;20133;-71
2022/10/20 09:13:42;;;;;;;12.20;5.15;;;14.40;99.90;;;;;;4990512;28;20027;-71
2022/10/20 09:16:36;;;;;;;11.88;5.50;;;14.50;99.90;;;;;;4992140;28;20513;-70
2022/10/20 09:19:12;;;;;;;11.18;4.28;;;14.40;99.90;;;;;;4992093;28;20042;-71
2022/10/20 09:21:39;;;;;;;16.60;5.07;;;14.50;99.90;;;;;;4990982;28;20041;-71
2022/10/20 09:24:06;;;;;;;9.52;5.57;;;14.50;99.90;;;;;;4990455;28;20034;-70
2022/10/20 09:26:45;;;;;;;12.73;5.05;;;14.60;99.90;;;;;;4990740;28;20038;-70
2022/10/20 09:29:15;;;;;;;9.88;5.50;;;14.70;99.90;;;;;;4990456;28;20390;-71
2022/10/20 09:31:48;;;;;;;11.35;5.22;;;14.80;99.90;;;;;;4990657;28;20088;-71
2022/10/20 09:34:30;;;;;;;11.75;5.70;;;14.70;99.90;;;;;;4990026;28;20054;-71
2022/10/20 09:37:07;;;;;;;9.43;5.03;;;14.90;99.90;;;;;;4991937;28;20065;-71
2022/10/20 09:39:55;;;;;;;19.38;5.53;;;15.10;99.90;;;;;;4991797;28;20514;-70
2022/10/20 09:42:28;;;;;;;13.50;4.93;;;15.30;99.90;;;;;;4990050;28;20042;-68
2022/10/20 09:44:57;;;;;;;10.40;5.25;;;15.40;99.90;;;;;;4990521;28;20030;-68
2022/10/20 09:47:25;;;;;;;10.93;4.72;;;15.40;99.90;;;;;;4990210;28;20426;-69
2022/10/20 09:50:03;;;;;;;19.88;5.38;;;15.10;99.90;;;;;;4990180;28;20023;-69
2022/10/20 09:52:33;;;;;;;9.77;4.45;;;15.50;99.90;;;;;;4989957;28;20060;-69
2022/10/20 09:55:18;;;;;;;14.13;4.90;;;15.70;99.90;;;;;;4990153;28;20033;-68
2022/10/20 09:57:47;;;;;;;15.68;6.18;;;15.20;99.90;;;;;;4990320;28;20402;-69
2022/10/20 10:00:43;;;;;;;10.10;5.15;;;14.90;99.90;;;;;;4991367;28;20026;-69
2022/10/20 10:03:21;;;;;;;15.80;6.38;;;15.00;99.90;;;;;;4989891;28;20113;-57
2022/10/20 10:05:58;;;;;;;13.65;6.00;;;15.10;99.90;;;;;;4990105;28;20037;-55
2022/10/20 10:08:39;;;;;;;15.18;6.15;;;15.30;99.90;;;;;;4991168;28;20026;-57
2022/10/20 10:11:19;;;;;;;14.50;6.25;;;15.10;99.90;;;;;;4981850;28;20107;-56
2022/10/20 10:13:51;;;;;;;10.45;5.30;;;15.00;99.90;;;;;;4969750;28;20030;-56
2022/10/20 10:16:23;;;;;;;9.55;5.32;;;15.10;99.90;;;;;;4970449;28;20035;-57
2022/10/20 10:19:01;;;;;;;13.95;5.75;;;15.00;99.90;;;;;;4970645;28;20031;-78
2022/10/20 10:21:45;;;;;;;14.57;6.30;;;15.50;99.90;;;;;;4970708;28;20626;-69
2022/10/20 10:24:45;;;;;;;12.65;6.35;;;15.60;99.90;;;;;;4977284;28;20394;-69
2022/10/20 10:27:27;;;;;;;15.10;5.50;;;16.20;99.90;;;;;;4985800;28;20089;-69
2022/10/20 10:29:55;;;;;;;13.77;5.00;;;16.50;99.90;;;;;;4970485;28;20097;-71
2022/10/20 10:32:26;;;;;;;10.02;5.15;;;16.30;99.90;;;;;;4971994;28;20035;-71
2022/10/20 10:35:19;;;;;;;15.20;4.60;;;16.10;99.90;;;;;;4954417;28;20089;-72
2022/10/20 10:37:46;;;;;;;11.32;4.65;;;16.40;99.90;;;;;;4971343;28;20074;-73
2022/10/20 10:40:20;;;;;;;12.23;5.40;;;16.60;99.90;;;;;;4971365;28;20034;-72
2022/10/20 10:43:00;;;;;;;8.25;4.65;;;16.60;99.90;;;;;;4971058;28;20031;-73
2022/10/20 10:45:55;;;;;;;12.88;6.05;;;16.80;99.90;;;;;;4971376;28;20034;-60
2022/10/20 10:48:47;;;;;;;13.02;4.97;;;17.00;99.90;;;;;;4975235;28;20050;-61
2022/10/20 10:51:46;;;;;;;13.70;5.43;;;17.50;99.90;;;;;;4971502;28;20047;-61
2022/10/20 10:54:39;;;;;;;11.95;5.28;;;17.00;99.90;;;;;;4982845;28;20077;-63
2022/10/20 10:57:31;;;;;;;17.65;6.97;;;17.00;99.90;;;;;;4990921;28;20141;-60
2022/10/20 11:00:09;;;;;;;14.27;5.57;;;16.90;99.90;;;;;;4989228;28;20479;-61
2022/10/20 11:03:22;;;;;;;11.25;5.25;;;17.00;99.90;;;;;;4989687;28;20069;-62
2022/10/20 11:06:02;;;;;;;23.10;6.50;;;17.50;99.90;;;;;;4990320;28;20034;-71
2022/10/20 11:08:46;;;;;;;12.13;5.07;;;17.20;99.90;;;;;;4973999;28;20034;-71
2022/10/20 11:11:31;;;;;;;9.00;4.53;;;16.70;99.90;;;;;;4978849;28;20397;-70
2022/10/20 11:14:18;;;;;;;15.02;5.40;;;16.50;99.90;;;;;;4989155;28;20030;-71
2022/10/20 11:17:17;;;;;;;10.73;4.00;;;16.50;99.90;;;;;;4989188;28;20382;-72
2022/10/20 11:20:19;;;;;;;10.77;5.38;;;16.60;99.90;;;;;;4990887;28;20038;-73
2022/10/20 11:23:21;;;;;;;15.70;6.45;;;16.50;99.90;;;;;;4990011;28;20486;-72
2022/10/20 11:26:33;;;;;;;10.52;5.63;;;16.60;99.90;;;;;;4994129;28;20089;-72
2022/10/20 11:29:02;;;;;;;6.93;3.20;;;16.70;99.90;;;;;;4985550;28;20097;-73
2022/10/20 11:31:47;;;;;;;9.38;2.90;;;16.90;99.90;;;;;;4992890;28;20042;-72
2022/10/20 11:34:54;;;;;;;8.93;3.13;;;17.00;99.90;;;;;;4994003;28;20045;-71
2022/10/20 11:37:40;;;;;;;9.15;3.03;;;16.70;99.90;;;;;;4988599;28;20050;-70
2022/10/20 11:40:09;;;;;;;10.13;4.05;;;16.80;99.90;;;;;;4973213;28;20044;-71
2022/10/20 11:42:46;;;;;;;6.80;3.20;;;16.80;99.90;;;;;;4973129;28;20038;-71
2022/10/20 11:45:48;;;;;;;5.05;3.47;;;16.60;99.90;;;;;;4973508;28;20034;-71
2022/10/20 11:48:28;;;;;;;6.78;3.33;;;16.70;99.90;;;;;;4974561;28;20030;-70
2022/10/20 11:51:24;;;;;;;5.18;3.25;;;16.70;99.90;;;;;;4972854;28;20050;-71
2022/10/20 11:54:18;;;;;;;6.45;3.10;;;16.70;99.90;;;;;;4973885;28;20487;-71
2022/10/20 11:57:17;;;;;;;20.52;3.80;;;16.50;99.90;;;;;;4974020;28;20406;-71
2022/10/20 12:00:02;;;;;;;5.13;2.83;;;16.30;99.90;;;;;;4988870;28;20050;-70
2022/10/20 12:03:06;;;;;;;6.38;3.10;;;16.20;99.90;;;;;;4973327;28;20042;-71
2022/10/20 12:06:19;;;;;;;6.75;3.42;;;16.30;99.90;;;;;;4974053;28;20042;-71
2022/10/20 12:09:00;;;;;;;9.07;4.20;;;16.30;99.90;;;;;;4973635;28;20034;-71
2022/10/20 12:12:02;;;;;;;8.05;2.63;;;16.10;99.90;;;;;;4984565;28;20544;-71
2022/10/20 12:14:43;;;;;;;6.47;3.28;;;16.10;99.90;;;;;;4992728;28;20034;-72
2022/10/20 12:17:27;;;;;;;5.50;2.67;;;16.20;99.90;;;;;;4991297;28;20058;-58
2022/10/20 12:20:18;;;;;;;7.60;3.17;;;16.20;99.90;;;;;;4991784;28;20437;-72
2022/10/20 12:22:45;;;;;;;8.30;3.30;;;16.20;99.90;;;;;;4992680;28;20046;-72
2022/10/20 12:25:18;;;;;;;12.50;3.25;;;16.30;99.90;;;;;;4973380;28;20027;-72
2022/10/20 12:27:44;;;;;;;7.55;3.08;;;16.30;99.90;;;;;;4973578;28;20038;-71
2022/10/20 12:30:38;;;;;;;6.40;3.10;;;16.30;99.90;;;;;;4972345;28;20035;-72
2022/10/20 12:33:33;;;;;;;5.72;3.42;;;16.30;99.90;;;;;;4972230;28;20407;-72
2022/10/20 12:36:16;;;;;;;7.90;3.80;;;16.40;99.90;;;;;;4972633;28;20086;-71
2022/10/20 12:38:52;;;;;;;6.75;3.53;;;16.40;99.90;;;;;;4973473;28;20039;-71
2022/10/20 12:41:32;;;;;;;6.28;2.67;;;16.40;99.90;;;;;;4973340;28;20109;-72
2022/10/20 12:44:18;;;;;;;4.72;2.50;;;16.30;99.90;;;;;;4971607;28;20027;-72
2022/10/20 12:47:05;;;;;;;5.15;2.80;;;16.30;99.90;;;;;;4971938;28;20500;-72
2022/10/20 12:49:42;;;;;;;8.38;3.70;;;16.20;99.90;;;;;;4973385;28;20041;-72
2022/10/20 12:52:21;;;;;;;6.32;3.10;;;16.20;99.90;;;;;;4972354;28;20038;-72
2022/10/20 12:55:05;;;;;;;5.35;3.10;;;16.20;99.90;;;;;;4991469;28;20122;-70
2022/10/20 12:57:41;;;;;;;5.55;3.08;;;16.30;99.90;;;;;;4991933;28;20034;-75
2022/10/20 13:00:27;;;;;;;11.32;3.90;;;16.40;99.90;;;;;;4991417;28;20584;-71
2022/10/20 13:02:55;;;;;;;8.85;3.58;;;16.50;99.90;;;;;;4961719;28;20043;-71
2022/10/20 13:05:41;;;;;;;11.02;3.20;;;16.50;99.90;;;;;;4975614;28;20104;-69
2022/10/20 13:08:23;;;;;;;7.75;2.97;;;16.50;99.90;;;;;;4971861;28;20081;-70
2022/10/20 13:10:49;;;;;;;8.50;3.28;;;16.50;99.90;;;;;;4978570;28;20093;-71
2022/10/20 13:13:18;;;;;;;5.60;3.20;;;16.60;99.90;;;;;;4974283;28;20105;-71
2022/10/20 13:15:43;;;;;;;7.30;3.00;;;16.50;99.90;;;;;;4992271;28;20113;-71
2022/10/20 13:18:12;;;;;;;7.18;3.10;;;16.50;99.90;;;;;;4987970;28;20117;-71
2022/10/20 13:20:57;;;;;;;8.90;3.53;;;16.50;99.90;;;;;;4972649;28;20043;-72